Time;durP1;ratioP1;P1;durP2;ratioP2;P2;SDS_P1;SDS_P2;PMS_P1;PMS_P2;Temp;Humidity;BMP_temperature;BMP_pressure;BME280_temperature;BME280_humidity;BME280_pressure;Samples;Min_cycle;Max_cycle;Signal;HPM_P1;HPM_P2
2022/03/10 00:00:11;;;;;;;25.48;12.60;;;0.40;82.70;;;;;;4970638;28;20047;-85
2022/03/10 00:02:36;;;;;;;26.05;13.93;;;0.40;82.90;;;;;;4952864;29;20134;-82
2022/03/10 00:05:03;;;;;;;23.83;13.00;;;0.50;82.50;;;;;;4952695;29;20159;-83
2022/03/10 00:07:29;;;;;;;27.23;12.55;;;0.50;82.10;;;;;;4952544;29;20129;-82
2022/03/10 00:09:54;;;;;;;24.25;12.43;;;0.50;82.10;;;;;;4936925;29;20510;-86
2022/03/10 00:12:20;;;;;;;20.70;12.60;;;0.50;81.60;;;;;;4952739;29;20047;-83
2022/03/10 00:14:46;;;;;;;26.48;13.15;;;0.50;81.50;;;;;;4952975;28;20050;-82
2022/03/10 00:17:12;;;;;;;24.67;13.65;;;0.40;81.60;;;;;;4951955;29;20128;-84
2022/03/10 00:19:37;;;;;;;23.23;13.05;;;0.30;81.70;;;;;;4952843;29;20039;-83
2022/03/10 00:22:03;;;;;;;22.00;12.93;;;0.20;81.90;;;;;;4969172;28;20050;-82
2022/03/10 00:24:29;;;;;;;26.00;13.48;;;0.20;82.10;;;;;;4953067;29;20050;-84
2022/03/10 00:26:55;;;;;;;21.90;12.32;;;0.10;82.40;;;;;;4950918;29;20067;-82
2022/03/10 00:29:21;;;;;;;23.50;13.23;;;0.00;82.40;;;;;;4953427;28;20035;-83
2022/03/10 00:31:46;;;;;;;24.88;13.48;;;0.00;82.60;;;;;;4953723;29;20481;-82
2022/03/10 00:34:12;;;;;;;24.65;13.43;;;0.00;83.00;;;;;;4953682;29;20043;-83
2022/03/10 00:36:38;;;;;;;23.25;13.75;;;-0.10;83.10;;;;;;4970128;28;20074;-83
2022/03/10 00:39:04;;;;;;;23.88;13.52;;;-0.20;83.50;;;;;;4969599;28;20433;-81
2022/03/10 00:41:30;;;;;;;23.63;13.88;;;-0.20;83.70;;;;;;4952979;29;20102;-82
2022/03/10 00:43:55;;;;;;;23.15;13.85;;;-0.30;84.10;;;;;;4953414;29;20059;-82
2022/03/10 00:46:21;;;;;;;23.10;13.68;;;-0.40;84.50;;;;;;4953669;28;20046;-83
2022/03/10 00:48:47;;;;;;;27.73;13.93;;;-0.40;84.70;;;;;;4969508;28;20121;-81
2022/03/10 00:51:12;;;;;;;26.33;13.95;;;-0.40;85.40;;;;;;4969990;28;20035;-82
2022/03/10 00:53:38;;;;;;;26.95;13.93;;;-0.30;86.10;;;;;;4959693;28;20106;-81
2022/03/10 00:56:04;;;;;;;24.65;14.82;;;-0.30;85.60;;;;;;4948564;29;20090;-82
2022/03/10 00:58:30;;;;;;;27.27;14.38;;;-0.30;85.70;;;;;;4953808;29;20089;-82
2022/03/10 01:00:55;;;;;;;25.92;14.13;;;-0.30;86.10;;;;;;4937411;29;20126;-83
2022/03/10 01:03:21;;;;;;;23.88;14.15;;;-0.30;86.40;;;;;;4949688;29;20422;-83
2022/03/10 01:05:47;;;;;;;24.00;14.68;;;-0.30;85.90;;;;;;4946935;29;20043;-84
2022/03/10 01:08:13;;;;;;;24.33;14.55;;;-0.40;85.90;;;;;;4969312;28;20043;-82
2022/03/10 01:10:39;;;;;;;27.70;14.35;;;-0.50;85.60;;;;;;4952821;29;20117;-83
2022/03/10 01:13:16;;;;;;;26.42;13.90;;;-0.60;85.70;;;;;;4929793;29;20489;-81
2022/03/10 01:15:45;;;;;;;23.15;14.02;;;-0.70;86.30;;;;;;4967351;28;20046;-81
2022/03/10 01:18:11;;;;;;;25.52;14.15;;;-0.80;86.80;;;;;;4953574;29;20163;-82
2022/03/10 01:20:37;;;;;;;25.52;14.10;;;-0.80;87.30;;;;;;4969363;28;20106;-87
2022/03/10 01:23:03;;;;;;;25.77;13.65;;;-0.80;88.00;;;;;;4952768;29;20071;-81
2022/03/10 01:25:29;;;;;;;27.52;14.98;;;-0.80;87.30;;;;;;4955367;28;20051;-82
2022/03/10 01:27:54;;;;;;;23.98;13.88;;;-0.80;87.20;;;;;;4952612;29;20043;-83
2022/03/10 01:30:20;;;;;;;22.08;13.57;;;-0.90;87.30;;;;;;4936754;29;20412;-82
2022/03/10 01:32:46;;;;;;;24.58;13.93;;;-0.90;87.90;;;;;;4937178;29;20045;-82
2022/03/10 01:35:12;;;;;;;25.85;13.85;;;-1.00;88.20;;;;;;4947890;29;20130;-83
2022/03/10 01:37:38;;;;;;;26.25;14.88;;;-1.00;88.40;;;;;;4968328;28;20045;-84
2022/03/10 01:40:09;;;;;;;25.35;14.23;;;-1.10;88.70;;;;;;4969332;28;20473;-81
2022/03/10 01:42:35;;;;;;;27.60;14.60;;;-1.10;88.90;;;;;;4968843;28;20074;-81
2022/03/10 01:45:02;;;;;;;27.45;14.57;;;-1.10;88.80;;;;;;4952356;29;20102;-82
2022/03/10 01:47:27;;;;;;;25.77;14.25;;;-1.10;89.20;;;;;;4946490;29;20450;-83
2022/03/10 01:49:53;;;;;;;21.25;13.38;;;-1.10;88.90;;;;;;4964966;28;20118;-82
2022/03/10 01:52:20;;;;;;;30.15;13.88;;;-1.10;89.80;;;;;;4961145;28;20610;-84
2022/03/10 01:54:46;;;;;;;27.33;13.77;;;-1.10;89.60;;;;;;4952487;29;20469;-82
2022/03/10 01:57:12;;;;;;;26.52;14.57;;;-1.00;89.70;;;;;;4968981;28;20146;-81
2022/03/10 01:59:40;;;;;;;28.92;14.80;;;-1.00;89.90;;;;;;4943450;29;20126;-85
2022/03/10 02:02:06;;;;;;;24.85;13.70;;;-0.90;89.80;;;;;;4957060;28;20043;-82
2022/03/10 02:04:32;;;;;;;23.23;13.80;;;-0.80;90.10;;;;;;4946093;29;20106;-82
2022/03/10 02:07:00;;;;;;;27.63;13.00;;;-0.70;88.90;;;;;;4933035;29;20081;-86
2022/03/10 02:12:10;;;;;;;24.55;13.70;;;-0.60;88.90;;;;;;4950881;29;20082;-81
2022/03/10 02:17:20;;;;;;;23.77;13.65;;;-0.60;88.70;;;;;;4968440;28;20137;-82
2022/03/10 02:19:51;;;;;;;27.00;14.25;;;-0.70;88.40;;;;;;4952381;29;20484;-83
2022/03/10 02:22:17;;;;;;;26.40;14.77;;;-0.70;88.60;;;;;;4949408;29;20058;-82
2022/03/10 02:24:44;;;;;;;24.42;13.20;;;-0.80;89.00;;;;;;4952362;29;20504;-83
2022/03/10 02:27:13;;;;;;;24.02;13.95;;;-0.80;89.20;;;;;;4952617;29;20082;-81
2022/03/10 02:29:40;;;;;;;23.52;13.57;;;-0.90;88.90;;;;;;4968325;28;20392;-83
2022/03/10 02:32:06;;;;;;;27.52;15.07;;;-1.00;89.00;;;;;;4930576;29;20461;-82
2022/03/10 02:34:32;;;;;;;24.08;13.35;;;-1.10;89.50;;;;;;4936867;29;20130;-82
2022/03/10 02:36:57;;;;;;;25.58;13.73;;;-1.10;89.80;;;;;;4933297;29;20075;-82
2022/03/10 02:39:23;;;;;;;28.00;14.63;;;-1.20;89.80;;;;;;4949803;29;20047;-82
2022/03/10 02:41:49;;;;;;;25.80;14.65;;;-1.30;89.80;;;;;;4950332;29;20035;-81
2022/03/10 02:52:32;;;;;;;23.65;13.50;;;-1.50;90.40;;;;;;5211109;23;20069;-82
2022/03/10 02:54:58;;;;;;;26.55;14.45;;;-1.50;90.40;;;;;;4957263;28;20077;-82
2022/03/10 02:57:23;;;;;;;27.67;15.18;;;-1.50;90.60;;;;;;4989895;28;20050;-83
2022/03/10 02:59:49;;;;;;;29.10;14.63;;;-1.50;91.30;;;;;;4989729;28;20500;-82
2022/03/10 03:02:15;;;;;;;28.40;14.40;;;-1.50;90.90;;;;;;4973461;28;20050;-82
2022/03/10 03:04:40;;;;;;;28.70;14.38;;;-1.40;90.60;;;;;;4987640;28;20048;-89
2022/03/10 03:07:06;;;;;;;23.55;14.13;;;-1.40;90.60;;;;;;4957783;28;20058;-81
2022/03/10 03:09:32;;;;;;;26.05;14.63;;;-1.50;90.60;;;;;;4985906;28;20404;-81
2022/03/10 03:11:58;;;;;;;28.60;15.23;;;-1.50;90.70;;;;;;4976873;28;20054;-81
2022/03/10 03:14:23;;;;;;;25.55;13.80;;;-1.50;90.70;;;;;;4994253;28;20057;-82
2022/03/10 03:16:55;;;;;;;24.05;14.77;;;-1.50;90.60;;;;;;4971114;28;20510;-82
2022/03/10 03:19:20;;;;;;;24.13;13.60;;;-1.50;90.50;;;;;;4978097;28;20049;-82
2022/03/10 03:21:47;;;;;;;27.83;13.90;;;-1.60;90.60;;;;;;5009912;28;20458;-82
2022/03/10 03:24:12;;;;;;;26.80;14.32;;;-1.60;90.60;;;;;;4977694;28;20074;-83
2022/03/10 03:26:38;;;;;;;26.00;14.30;;;-1.50;90.70;;;;;;4977835;28;20113;-83
2022/03/10 03:29:04;;;;;;;24.38;14.82;;;-1.60;90.80;;;;;;4977153;28;20385;-82
2022/03/10 03:31:30;;;;;;;25.75;13.70;;;-1.60;90.90;;;;;;4994008;28;20052;-82
2022/03/10 03:33:56;;;;;;;28.50;15.20;;;-1.60;91.00;;;;;;4993692;28;20096;-82
2022/03/10 03:36:22;;;;;;;25.88;14.52;;;-1.60;91.00;;;;;;4970383;28;20094;-82
2022/03/10 03:38:47;;;;;;;25.83;14.50;;;-1.60;91.10;;;;;;4991717;28;20057;-83
2022/03/10 03:41:13;;;;;;;26.23;14.27;;;-1.60;91.10;;;;;;4977360;28;20049;-82
2022/03/10 03:43:39;;;;;;;25.83;14.27;;;-1.50;91.30;;;;;;5008336;28;20038;-86
2022/03/10 03:46:05;;;;;;;24.33;13.10;;;-1.40;91.30;;;;;;4975965;28;20403;-82
2022/03/10 03:48:30;;;;;;;23.15;12.82;;;-1.40;91.10;;;;;;4977234;28;20109;-82
2022/03/10 03:50:56;;;;;;;26.52;13.82;;;-1.30;91.00;;;;;;4992868;28;20101;-82
2022/03/10 03:53:22;;;;;;;22.10;13.52;;;-1.20;90.80;;;;;;4993399;28;20381;-82
2022/03/10 03:55:47;;;;;;;20.40;12.63;;;-1.20;90.70;;;;;;4976770;28;20073;-83
2022/03/10 03:58:13;;;;;;;26.05;13.88;;;-1.30;90.70;;;;;;4977096;28;20050;-82
2022/03/10 04:00:39;;;;;;;21.67;12.95;;;-1.20;90.60;;;;;;4993012;28;20050;-86
2022/03/10 04:03:09;;;;;;;28.42;13.52;;;-1.20;90.70;;;;;;4992875;28;20050;-82
2022/03/10 04:05:39;;;;;;;23.63;13.38;;;-1.10;90.60;;;;;;4992501;28;20046;-82
2022/03/10 04:08:06;;;;;;;23.63;12.90;;;-1.10;90.40;;;;;;4976982;28;20108;-82
2022/03/10 04:10:32;;;;;;;26.48;13.77;;;-1.10;90.40;;;;;;4977258;28;20046;-82
2022/03/10 04:12:58;;;;;;;22.45;13.10;;;-1.10;90.30;;;;;;4976115;28;20046;-82
2022/03/10 04:15:23;;;;;;;25.08;13.88;;;-1.00;90.30;;;;;;4992124;28;20050;-83
2022/03/10 04:17:49;;;;;;;25.52;13.65;;;-1.00;90.40;;;;;;4975275;28;20526;-82
2022/03/10 04:20:15;;;;;;;23.70;13.13;;;-1.00;90.40;;;;;;4970669;28;20042;-83
2022/03/10 04:22:41;;;;;;;23.73;12.85;;;-1.00;90.20;;;;;;4976206;28;20058;-82
2022/03/10 04:25:08;;;;;;;23.83;13.40;;;-1.10;90.20;;;;;;4991128;28;20107;-83
2022/03/10 04:27:34;;;;;;;26.77;14.27;;;-1.20;90.20;;;;;;4992788;28;20058;-82
2022/03/10 04:30:00;;;;;;;20.92;12.98;;;-1.30;90.40;;;;;;5008942;28;20085;-82
2022/03/10 04:32:26;;;;;;;24.20;14.65;;;-1.30;90.60;;;;;;4993210;28;20423;-80
2022/03/10 04:34:52;;;;;;;22.52;13.50;;;-1.40;90.80;;;;;;4992551;28;20050;-82
2022/03/10 04:37:17;;;;;;;25.27;13.80;;;-1.40;90.80;;;;;;4993178;28;20038;-83
2022/03/10 04:39:43;;;;;;;24.75;13.57;;;-1.40;91.00;;;;;;4975234;28;20053;-83
2022/03/10 04:42:09;;;;;;;24.13;13.95;;;-1.50;90.90;;;;;;4992648;28;20515;-83
2022/03/10 04:44:35;;;;;;;25.40;14.23;;;-1.50;91.20;;;;;;4992979;28;20518;-82
2022/03/10 04:47:01;;;;;;;25.05;13.60;;;-1.50;91.30;;;;;;4976541;28;20042;-82
2022/03/10 04:49:27;;;;;;;24.25;14.00;;;-1.50;91.40;;;;;;4976469;28;20038;-81
2022/03/10 04:51:52;;;;;;;22.83;13.80;;;-1.50;91.10;;;;;;4972386;28;20066;-88
2022/03/10 04:54:18;;;;;;;24.92;12.95;;;-1.50;91.10;;;;;;4989658;28;20112;-81
2022/03/10 04:56:44;;;;;;;27.75;14.68;;;-1.60;91.20;;;;;;4958000;28;20097;-82
2022/03/10 04:59:10;;;;;;;25.70;14.18;;;-1.60;91.20;;;;;;4991977;28;20496;-82
2022/03/10 05:01:35;;;;;;;25.75;14.75;;;-1.60;91.40;;;;;;4987153;28;20046;-83
2022/03/10 05:04:01;;;;;;;24.88;13.55;;;-1.60;91.40;;;;;;4991435;28;20391;-82
2022/03/10 05:06:27;;;;;;;23.48;12.90;;;-1.60;91.30;;;;;;4974958;28;20050;-83
2022/03/10 05:08:52;;;;;;;24.55;12.48;;;-1.70;91.30;;;;;;4991571;28;20074;-82
2022/03/10 05:11:18;;;;;;;26.63;13.23;;;-1.60;91.50;;;;;;4959673;28;20203;-83
2022/03/10 05:13:44;;;;;;;23.13;13.40;;;-1.60;91.70;;;;;;4956857;28;20042;-82
2022/03/10 05:16:09;;;;;;;24.13;13.25;;;-1.60;91.60;;;;;;4990422;28;20054;-83
2022/03/10 05:18:35;;;;;;;25.55;13.77;;;-1.50;91.50;;;;;;4991629;28;20066;-83
2022/03/10 05:21:01;;;;;;;23.92;13.00;;;-1.50;91.40;;;;;;4987565;28;20047;-82
2022/03/10 05:23:26;;;;;;;24.17;12.82;;;-1.50;91.20;;;;;;4990601;28;20831;-82
2022/03/10 05:25:52;;;;;;;23.05;12.52;;;-1.60;91.20;;;;;;4955903;28;20061;-81
2022/03/10 05:28:18;;;;;;;24.52;13.95;;;-1.70;91.30;;;;;;4987420;28;20695;-83
2022/03/10 05:30:45;;;;;;;23.20;13.52;;;-1.70;91.30;;;;;;4975489;28;20061;-82
2022/03/10 05:33:12;;;;;;;24.77;13.35;;;-1.70;91.40;;;;;;4974478;28;20109;-82
2022/03/10 05:35:38;;;;;;;23.40;13.55;;;-1.60;91.50;;;;;;4975469;28;20058;-82
2022/03/10 05:38:04;;;;;;;23.88;13.60;;;-1.70;91.60;;;;;;4991508;28;20046;-81
2022/03/10 05:40:29;;;;;;;25.63;13.85;;;-1.70;91.70;;;;;;4975749;28;20404;-83
2022/03/10 05:42:56;;;;;;;24.75;14.07;;;-1.70;91.80;;;;;;4990763;28;20057;-82
2022/03/10 05:45:23;;;;;;;25.35;13.52;;;-1.60;91.80;;;;;;4975415;28;20466;-81
2022/03/10 05:47:54;;;;;;;23.40;13.63;;;-1.60;91.80;;;;;;4975597;28;20133;-86
2022/03/10 05:50:21;;;;;;;23.13;12.88;;;-1.50;91.70;;;;;;4975011;28;20042;-83
2022/03/10 05:52:47;;;;;;;25.20;12.82;;;-1.50;91.50;;;;;;4955892;28;20146;-82
2022/03/10 05:55:14;;;;;;;26.70;13.57;;;-1.50;91.30;;;;;;4971220;28;20610;-82
2022/03/10 05:57:40;;;;;;;24.25;12.80;;;-1.50;91.30;;;;;;4975589;28;20131;-83
2022/03/10 06:00:08;;;;;;;23.33;13.57;;;-1.60;91.30;;;;;;4990980;28;20046;-81
2022/03/10 06:02:34;;;;;;;24.67;13.95;;;-1.60;91.40;;;;;;4956376;28;20130;-83
2022/03/10 06:05:01;;;;;;;21.65;12.77;;;-1.60;91.60;;;;;;4966526;28;20467;-82
2022/03/10 06:07:27;;;;;;;23.75;12.75;;;-1.60;91.50;;;;;;4985944;28;20039;-81
2022/03/10 06:09:55;;;;;;;26.30;13.75;;;-1.60;91.80;;;;;;5006212;28;20487;-85
2022/03/10 06:12:26;;;;;;;28.33;14.43;;;-1.60;91.50;;;;;;4989763;28;20042;-81
2022/03/10 06:14:59;;;;;;;31.17;16.42;;;-1.50;91.50;;;;;;4989689;28;20081;-87
2022/03/10 06:17:25;;;;;;;26.15;13.13;;;-1.50;91.50;;;;;;4973573;28;20113;-82
2022/03/10 06:19:51;;;;;;;28.38;13.07;;;-1.40;91.50;;;;;;4974402;28;20436;-82
2022/03/10 06:22:18;;;;;;;28.90;13.25;;;-1.30;91.40;;;;;;4978727;28;20081;-82
2022/03/10 06:24:45;;;;;;;25.02;13.65;;;-1.30;91.30;;;;;;4976568;28;20050;-80
2022/03/10 06:27:16;;;;;;;21.45;12.57;;;-1.20;91.30;;;;;;4981858;28;20042;-79
2022/03/10 06:29:42;;;;;;;23.05;12.98;;;-1.20;91.20;;;;;;4987678;28;20042;-80
2022/03/10 06:32:08;;;;;;;25.65;13.25;;;-1.10;91.00;;;;;;4973260;28;20140;-82
2022/03/10 06:34:37;;;;;;;23.30;13.23;;;-1.00;91.00;;;;;;4999210;28;20054;-81
2022/03/10 06:37:03;;;;;;;29.17;13.68;;;-1.00;91.00;;;;;;4985495;28;20545;-81
2022/03/10 06:39:29;;;;;;;25.33;15.32;;;-1.00;91.00;;;;;;4990458;28;20054;-82
2022/03/10 06:41:55;;;;;;;33.00;18.45;;;-0.90;91.10;;;;;;5006410;28;20408;-87
2022/03/10 06:44:20;;;;;;;42.90;23.60;;;-0.90;91.10;;;;;;4981702;28;20550;-81
2022/03/10 06:46:46;;;;;;;30.45;17.73;;;-0.90;91.10;;;;;;4989076;28;20045;-82
2022/03/10 06:49:12;;;;;;;32.88;17.50;;;-0.80;91.00;;;;;;4992931;28;20097;-81
2022/03/10 06:51:38;;;;;;;33.63;17.27;;;-0.70;90.90;;;;;;4971328;28;20049;-81
2022/03/10 06:54:04;;;;;;;27.45;15.35;;;-0.60;90.90;;;;;;5009321;28;20065;-80
2022/03/10 06:56:30;;;;;;;26.77;14.45;;;-0.70;90.90;;;;;;4975325;28;20369;-84
2022/03/10 06:58:56;;;;;;;23.10;14.00;;;-0.60;91.00;;;;;;4993407;28;20053;-87
2022/03/10 07:01:22;;;;;;;25.77;13.50;;;-0.50;90.80;;;;;;4993933;28;20049;-81
2022/03/10 07:03:48;;;;;;;25.75;14.18;;;-0.40;90.70;;;;;;4977511;28;20514;-81
2022/03/10 07:06:14;;;;;;;29.75;15.00;;;-0.40;90.70;;;;;;4976976;28;20046;-81
2022/03/10 07:08:39;;;;;;;28.58;15.70;;;-0.30;90.60;;;;;;4993915;28;20631;-83
2022/03/10 07:11:05;;;;;;;25.20;13.52;;;-0.20;90.50;;;;;;4982673;28;20043;-81
2022/03/10 07:13:34;;;;;;;22.90;12.60;;;-0.20;90.50;;;;;;4977817;28;20135;-81
2022/03/10 07:16:00;;;;;;;23.73;12.40;;;-0.10;90.40;;;;;;5009989;28;20058;-84
2022/03/10 07:18:25;;;;;;;23.73;12.80;;;0.00;90.40;;;;;;4976953;28;20046;-80
2022/03/10 07:20:51;;;;;;;22.45;13.68;;;0.10;90.20;;;;;;4993825;28;20069;-81
2022/03/10 07:23:17;;;;;;;23.90;12.60;;;0.20;90.20;;;;;;4993805;28;20073;-81
2022/03/10 07:25:43;;;;;;;23.25;12.95;;;0.20;90.10;;;;;;4994174;28;20489;-81
2022/03/10 07:28:09;;;;;;;23.00;13.35;;;0.40;90.10;;;;;;4973055;28;20046;-82
2022/03/10 07:30:35;;;;;;;23.17;12.68;;;0.40;90.10;;;;;;4971084;28;20038;-80
2022/03/10 07:33:01;;;;;;;21.73;13.00;;;0.50;90.00;;;;;;4975288;28;20056;-82
2022/03/10 07:35:27;;;;;;;26.40;13.23;;;0.60;90.00;;;;;;4994284;28;20611;-83
2022/03/10 07:37:55;;;;;;;23.88;13.57;;;0.70;89.90;;;;;;4983323;28;20058;-81
2022/03/10 07:40:22;;;;;;;22.98;13.05;;;0.80;89.70;;;;;;4993304;28;20054;-81
2022/03/10 07:42:47;;;;;;;27.08;14.85;;;0.90;89.60;;;;;;5002772;28;20069;-81
2022/03/10 07:45:13;;;;;;;24.80;13.68;;;1.00;89.30;;;;;;4974060;28;20046;-80
2022/03/10 07:47:42;;;;;;;26.67;14.90;;;1.10;89.10;;;;;;4993029;28;20042;-81
2022/03/10 07:50:08;;;;;;;28.90;14.75;;;1.20;89.00;;;;;;4991726;28;20511;-81
2022/03/10 07:52:34;;;;;;;28.73;15.05;;;1.30;88.80;;;;;;4974936;28;20058;-81
2022/03/10 07:55:00;;;;;;;24.70;13.68;;;1.40;88.80;;;;;;4976661;28;20094;-84
2022/03/10 07:57:26;;;;;;;25.55;14.55;;;1.50;88.60;;;;;;4993565;28;20134;-81
2022/03/10 07:59:52;;;;;;;24.45;14.15;;;1.60;88.40;;;;;;5004049;28;20129;-80
2022/03/10 08:02:18;;;;;;;25.50;13.85;;;1.80;88.10;;;;;;4986576;28;20605;-80
2022/03/10 08:04:44;;;;;;;24.33;13.80;;;1.90;87.70;;;;;;4992020;28;20768;-81
2022/03/10 08:07:10;;;;;;;23.38;13.43;;;2.00;87.50;;;;;;4974106;28;20046;-80
2022/03/10 08:09:37;;;;;;;27.25;14.65;;;2.10;87.10;;;;;;4980760;28;20503;-82
2022/03/10 08:12:03;;;;;;;24.42;14.05;;;2.20;86.70;;;;;;4983942;28;20050;-82
2022/03/10 08:14:29;;;;;;;23.58;12.88;;;2.40;86.40;;;;;;4960308;28;20122;-81
2022/03/10 08:16:54;;;;;;;24.80;13.13;;;2.70;85.50;;;;;;4991568;28;20062;-81
2022/03/10 08:19:20;;;;;;;23.25;13.02;;;2.70;85.20;;;;;;4992949;28;20073;-82
2022/03/10 08:21:47;;;;;;;22.95;12.98;;;2.80;84.90;;;;;;4977351;28;20049;-81
2022/03/10 08:24:14;;;;;;;20.52;12.50;;;3.00;85.00;;;;;;4976878;28;20129;-81
2022/03/10 08:26:40;;;;;;;21.45;13.07;;;3.10;84.60;;;;;;4993033;28;20039;-81
2022/03/10 08:29:06;;;;;;;24.02;13.70;;;3.20;83.90;;;;;;5006788;28;20402;-81
2022/03/10 08:31:32;;;;;;;20.95;12.48;;;3.30;83.50;;;;;;4989217;28;20050;-82
2022/03/10 08:33:57;;;;;;;21.83;13.32;;;3.50;82.90;;;;;;4976590;28;20054;-83
2022/03/10 08:36:23;;;;;;;21.60;13.13;;;3.60;82.60;;;;;;4970317;28;20095;-81
2022/03/10 08:38:49;;;;;;;19.90;12.32;;;3.70;82.10;;;;;;4992562;28;20126;-80
2022/03/10 08:41:14;;;;;;;21.40;12.63;;;3.80;81.50;;;;;;4988614;28;20132;-81
2022/03/10 08:43:40;;;;;;;20.70;12.05;;;3.90;81.10;;;;;;4976764;28;20098;-83
2022/03/10 08:46:06;;;;;;;20.83;11.98;;;4.10;80.50;;;;;;4989158;28;20467;-82
2022/03/10 08:48:32;;;;;;;20.92;11.68;;;4.10;79.90;;;;;;4976316;28;20056;-82
2022/03/10 08:50:59;;;;;;;19.38;12.73;;;4.20;79.30;;;;;;4969207;28;20050;-82
2022/03/10 08:53:26;;;;;;;17.40;12.00;;;4.40;79.00;;;;;;4963639;28;20392;-82
2022/03/10 08:55:52;;;;;;;19.83;11.77;;;4.60;77.30;;;;;;4925652;28;20069;-82
2022/03/10 08:58:18;;;;;;;22.13;11.93;;;4.80;76.80;;;;;;4942141;28;20082;-82
2022/03/10 09:00:44;;;;;;;19.27;11.85;;;5.10;76.40;;;;;;4966685;28;20113;-82
2022/03/10 09:03:10;;;;;;;19.75;11.93;;;5.20;75.70;;;;;;4972271;28;20059;-83
2022/03/10 09:05:37;;;;;;;22.50;12.02;;;5.30;75.20;;;;;;4942526;28;20047;-81
2022/03/10 09:08:03;;;;;;;18.25;11.75;;;5.40;74.50;;;;;;4970650;28;20046;-86
2022/03/10 09:10:30;;;;;;;16.90;11.63;;;5.50;74.50;;;;;;4969003;28;20051;-81
2022/03/10 09:12:56;;;;;;;20.58;11.88;;;5.60;73.70;;;;;;4973113;28;20062;-81
2022/03/10 09:15:22;;;;;;;20.60;12.00;;;5.70;73.00;;;;;;4959056;28;20093;-82
2022/03/10 09:17:48;;;;;;;20.85;12.43;;;5.90;71.90;;;;;;4957394;28;20133;-82
2022/03/10 09:20:14;;;;;;;18.20;11.95;;;6.10;70.90;;;;;;4947370;28;20130;-81
2022/03/10 09:22:41;;;;;;;22.30;12.75;;;6.30;70.20;;;;;;4965798;28;20104;-83
2022/03/10 09:25:08;;;;;;;17.75;11.75;;;6.40;69.30;;;;;;4948920;28;20472;-83
2022/03/10 09:27:35;;;;;;;17.08;11.48;;;6.60;68.60;;;;;;4975397;28;20050;-82
2022/03/10 09:30:02;;;;;;;23.05;12.55;;;6.70;67.90;;;;;;4953258;28;20043;-83
2022/03/10 09:32:40;;;;;;;18.08;11.32;;;6.90;68.10;;;;;;4967771;28;20050;-81
2022/03/10 09:35:10;;;;;;;25.10;11.98;;;7.00;66.80;;;;;;4947043;28;20050;-86
2022/03/10 09:37:35;;;;;;;17.58;11.75;;;7.10;66.10;;;;;;4956389;28;20062;-82
2022/03/10 09:40:03;;;;;;;22.10;12.60;;;7.30;65.50;;;;;;4986097;28;20050;-83
2022/03/10 09:42:31;;;;;;;18.95;12.98;;;7.50;64.80;;;;;;4968296;28;20497;-84
2022/03/10 09:44:59;;;;;;;20.17;12.30;;;7.60;64.40;;;;;;4952078;28;20126;-82
2022/03/10 09:47:27;;;;;;;20.73;12.57;;;7.90;63.20;;;;;;4967426;28;20056;-82
2022/03/10 09:49:54;;;;;;;19.50;11.35;;;8.10;62.40;;;;;;4975827;28;20201;-86
2022/03/10 09:52:20;;;;;;;20.42;12.05;;;8.30;61.20;;;;;;4967009;28;20058;-81
2022/03/10 09:54:46;;;;;;;18.75;11.75;;;8.60;60.10;;;;;;4991832;28;20061;-82
2022/03/10 09:57:14;;;;;;;18.52;11.85;;;8.80;59.30;;;;;;4990818;28;20058;-83
2022/03/10 09:59:51;;;;;;;17.60;12.20;;;9.00;57.10;;;;;;4984780;28;20049;-81
2022/03/10 10:02:18;;;;;;;16.83;11.68;;;9.30;56.40;;;;;;4974617;28;20061;-82
2022/03/10 10:04:44;;;;;;;18.02;11.45;;;9.40;56.30;;;;;;4989236;28;20443;-82
2022/03/10 10:07:11;;;;;;;19.30;12.40;;;9.60;56.10;;;;;;4996974;28;20061;-84
2022/03/10 10:09:48;;;;;;;18.75;11.48;;;9.90;55.40;;;;;;4973212;28;20083;-82
2022/03/10 10:12:15;;;;;;;17.40;11.77;;;10.10;54.50;;;;;;4967840;28;20050;-81
2022/03/10 10:14:47;;;;;;;20.02;12.10;;;10.20;54.50;;;;;;5001556;28;20117;-81
2022/03/10 10:17:13;;;;;;;20.30;12.07;;;10.30;53.20;;;;;;4970035;28;20046;-81
2022/03/10 10:19:40;;;;;;;19.63;12.52;;;10.50;53.30;;;;;;4974995;28;20066;-80
2022/03/10 10:22:19;;;;;;;18.45;12.60;;;10.60;52.80;;;;;;4974602;28;20046;-81
2022/03/10 10:24:57;;;;;;;18.75;12.32;;;10.80;51.40;;;;;;4979104;28;20058;-81
2022/03/10 10:27:28;;;;;;;18.45;12.05;;;11.00;51.30;;;;;;4983987;28;20046;-81
2022/03/10 10:30:00;;;;;;;18.25;12.43;;;11.10;51.50;;;;;;4970785;28;20491;-82
2022/03/10 10:32:32;;;;;;;19.00;12.27;;;11.30;51.30;;;;;;4980026;28;20193;-81
2022/03/10 10:35:09;;;;;;;15.45;11.73;;;11.40;51.20;;;;;;4977735;28;20088;-83
2022/03/10 10:37:42;;;;;;;20.23;12.63;;;11.60;49.20;;;;;;4978619;28;20050;-81
2022/03/10 10:40:09;;;;;;;19.27;12.95;;;11.70;49.90;;;;;;4960554;28;20054;-84
2022/03/10 10:42:38;;;;;;;20.92;12.52;;;11.90;49.70;;;;;;4995133;28;20050;-82
2022/03/10 10:45:28;;;;;;;17.92;11.68;;;12.00;49.70;;;;;;4988905;28;20439;-81
2022/03/10 10:48:02;;;;;;;18.85;13.60;;;12.20;47.30;;;;;;4995647;28;20053;-81
2022/03/10 10:50:33;;;;;;;19.42;12.98;;;12.30;48.50;;;;;;4994114;28;20826;-81
2022/03/10 10:53:00;;;;;;;18.95;13.55;;;12.50;47.60;;;;;;4962668;28;20058;-82
2022/03/10 10:55:41;;;;;;;18.48;12.98;;;12.60;47.30;;;;;;4973885;28;20068;-81
2022/03/10 10:58:10;;;;;;;19.80;13.60;;;12.80;45.50;;;;;;4966047;28;20089;-81
2022/03/10 11:00:49;;;;;;;19.98;13.40;;;12.90;46.30;;;;;;4979060;28;20396;-82
2022/03/10 11:03:25;;;;;;;18.77;12.95;;;13.00;44.60;;;;;;4990873;28;20391;-82
2022/03/10 11:05:51;;;;;;;22.70;13.23;;;13.10;44.20;;;;;;5005679;28;20547;-85
2022/03/10 11:08:22;;;;;;;22.15;14.25;;;13.20;44.40;;;;;;4975963;28;20129;-83
2022/03/10 11:10:49;;;;;;;19.65;13.70;;;13.40;43.60;;;;;;4993497;28;20088;-82
2022/03/10 11:13:14;;;;;;;23.10;13.60;;;13.50;43.70;;;;;;4993506;28;20067;-82
2022/03/10 11:15:42;;;;;;;20.38;13.80;;;13.70;43.30;;;;;;4977317;28;20504;-81
2022/03/10 11:18:10;;;;;;;31.40;14.55;;;13.80;42.50;;;;;;4993623;28;20081;-82
2022/03/10 11:20:38;;;;;;;19.45;13.20;;;14.00;42.00;;;;;;4992810;28;20089;-82
2022/03/10 11:23:24;;;;;;;21.27;14.02;;;14.20;41.60;;;;;;4995531;28;20124;-82
2022/03/10 11:26:02;;;;;;;20.58;14.35;;;14.30;39.60;;;;;;4987943;28;20792;-84
2022/03/10 11:28:32;;;;;;;21.67;13.45;;;14.40;41.80;;;;;;5004339;28;20065;-81
2022/03/10 11:31:04;;;;;;;22.80;14.32;;;14.50;40.70;;;;;;4965576;28;20077;-82
2022/03/10 11:33:35;;;;;;;20.20;13.95;;;14.70;39.20;;;;;;4976941;28;20050;-83
2022/03/10 11:36:22;;;;;;;19.75;14.50;;;14.70;38.60;;;;;;5006528;28;20089;-82
2022/03/10 11:38:57;;;;;;;21.70;14.38;;;14.80;37.80;;;;;;4982329;28;20050;-84
2022/03/10 11:41:25;;;;;;;20.00;14.20;;;14.90;39.30;;;;;;5008663;28;20399;-81
2022/03/10 11:43:58;;;;;;;26.15;13.82;;;15.10;39.40;;;;;;4986957;28;20078;-81
2022/03/10 11:46:30;;;;;;;20.08;14.82;;;15.30;39.10;;;;;;4992988;28;20125;-82
2022/03/10 11:49:01;;;;;;;17.88;13.70;;;15.40;39.00;;;;;;4977627;28;20077;-81
2022/03/10 11:51:41;;;;;;;20.38;14.13;;;15.60;36.50;;;;;;4990419;28;20063;-82
2022/03/10 11:54:07;;;;;;;21.10;14.73;;;15.70;35.30;;;;;;5004103;28;20530;-81
2022/03/10 11:56:56;;;;;;;19.10;14.38;;;15.80;37.50;;;;;;4985927;28;20050;-82
2022/03/10 11:59:46;;;;;;;20.67;14.55;;;16.00;36.10;;;;;;4977462;28;20066;-83
2022/03/10 12:02:40;;;;;;;21.30;14.13;;;16.20;35.20;;;;;;5001014;28;20516;-82
2022/03/10 12:05:07;;;;;;;19.83;14.23;;;16.50;34.50;;;;;;5007400;28;20096;-81
2022/03/10 12:07:34;;;;;;;22.40;14.48;;;16.80;35.60;;;;;;4975711;28;20431;-82
2022/03/10 12:10:09;;;;;;;19.25;14.18;;;17.40;34.30;;;;;;4976911;28;20042;-81
2022/03/10 12:12:37;;;;;;;20.93;15.27;;;18.10;33.70;;;;;;4968287;28;20042;-79
2022/03/10 12:15:21;;;;;;;19.45;14.32;;;18.80;32.50;;;;;;4969399;28;20087;-79
2022/03/10 12:17:50;;;;;;;20.40;13.88;;;19.80;31.90;;;;;;4994429;28;20054;-80
2022/03/10 12:20:20;;;;;;;21.88;15.35;;;20.60;29.90;;;;;;4991061;28;20042;-84
2022/03/10 12:23:19;;;;;;;21.77;14.05;;;21.40;29.50;;;;;;4964589;28;20080;-80
2022/03/10 12:26:09;;;;;;;18.33;14.10;;;22.40;28.10;;;;;;4980262;28;20105;-80
2022/03/10 12:28:39;;;;;;;18.83;14.38;;;23.00;27.60;;;;;;4982428;28;20038;-82
2022/03/10 12:31:19;;;;;;;20.90;14.93;;;23.50;26.80;;;;;;5007652;28;20073;-80
2022/03/10 12:33:57;;;;;;;19.10;13.77;;;24.00;26.20;;;;;;4991901;28;20538;-80
2022/03/10 12:36:34;;;;;;;19.60;13.98;;;24.30;25.60;;;;;;4974852;28;20046;-80
2022/03/10 12:39:03;;;;;;;18.38;14.25;;;24.70;25.70;;;;;;4992315;28;20054;-80
2022/03/10 12:41:38;;;;;;;19.05;13.38;;;25.10;25.40;;;;;;4973351;28;20039;-81
2022/03/10 12:44:12;;;;;;;18.92;13.90;;;25.10;24.80;;;;;;4975411;28;20084;-81
2022/03/10 12:46:43;;;;;;;16.52;13.60;;;25.20;24.90;;;;;;4976334;28;20881;-82